Norwegian Epic — C6XP7 — position and weather

sailwx.info

Track history (hours):
 
Tides and Currents Weather Stations Pressure Air Temp Water Temp Dewpoint Dewpoint Depression Visibility Wind Speed Wind Dir Waves Ship Positions

Norwegian Epic

Last reported at 2017-Apr-28 02:30 UTC. Time now 2017-Apr-28 02:33 UTC.
Position N 43°29' E 007°45'.

Length 329 m; draft 9.2 m.

Type: Passenger vessel. MMSI: 311018500.

Date/timePositionNaut miles runAvg speedWind from/ knotsBaromVisibWave heightAir tempDewpointWater temp
2017-Apr-28 02:30N 43°29' E 007°45'713.6
2017-Apr-28 02:00N 43°29' E 007°55'613.1
2017-Apr-28 01:30N 43°29' E 008°04'612.9
2017-Apr-28 01:00N 43°29' E 008°13'713.3
2017-Apr-28 00:29N 43°30' E 008°23'612.7
2017-Apr-28 00:00N 43°30' E 008°31'511.0
2017-Apr-27 23:30N 43°30' E 008°38'611.4
2017-Apr-27 23:00N 43°30' E 008°46'611.4
2017-Apr-27 22:30N 43°30' E 008°54'611.4
2017-Apr-27 22:00N 43°31' E 009°02'611.2
2017-Apr-27 21:30N 43°31' E 009°10'611.5
2017-Apr-27 21:00N 43°31' E 009°17'611.6
2017-Apr-27 20:30N 43°31' E 009°25'611.9
2017-Apr-27 20:00N 43°31' E 009°34'611.7
2017-Apr-27 19:30N 43°31' E 009°42'612.0
2017-Apr-27 19:00N 43°32' E 009°50'712.3
2017-Apr-27 18:27N 43°31' E 009°59'612.2
2017-Apr-27 18:00N 43°30' E 010°07'611.5
2017-Apr-27 17:30N 43°32' E 010°15'3 4.1
2017-Apr-27 16:52N 43°33' E 010°18'0 0.0
2017-Apr-27 16:28N 43°33' E 010°18'0 0.0
2017-Apr-27 15:58N 43°33' E 010°18'0 0.0
2017-Apr-27 15:28N 43°33' E 010°18'0 0.0
2017-Apr-27 14:59N 43°33' E 010°18'0 0.0
2017-Apr-27 13:59N 43°33' E 010°18'0 0.0
2017-Apr-27 13:30N 43°33' E 010°18'0 0.0
2017-Apr-27 13:00N 43°33' E 010°18'0 0.0
2017-Apr-27 12:27N 43°33' E 010°18'0 0.0
2017-Apr-27 11:58N 43°33' E 010°18'0 0.0
2017-Apr-27 11:28N 43°33' E 010°18'0 0.0
2017-Apr-27 10:58N 43°33' E 010°18'0 0.0
2017-Apr-27 10:29N 43°33' E 010°18'0 0.0
2017-Apr-27 09:59N 43°33' E 010°18'0 0.0
2017-Apr-27 09:29N 43°33' E 010°18'0 0.0
2017-Apr-27 09:00N 43°33' E 010°18'0 0.0
2017-Apr-27 08:30N 43°33' E 010°18'0 0.0
2017-Apr-27 08:00N 43°33' E 010°18'0 0.0
2017-Apr-27 07:28N 43°33' E 010°18'0 0.0
2017-Apr-27 06:58N 43°33' E 010°18'0 0.0
2017-Apr-27 06:28N 43°33' E 010°18'0 0.0
2017-Apr-27 05:59N 43°33' E 010°18'0 0.0
2017-Apr-27 05:29N 43°33' E 010°18'0 0.0
2017-Apr-27 04:56N 43°33' E 010°18'0 0.4
2017-Apr-27 04:31N 43°33' E 010°18'3 5.6
2017-Apr-27 04:00N 43°31' E 010°15'611.8
2017-Apr-27 03:31N 43°26' E 010°12'612.9
2017-Apr-27 03:00N 43°19' E 010°09'612.9
2017-Apr-27 02:30N 43°13' E 010°07'612.8
2017-Apr-27 02:00N 43°07' E 010°05'612.6
2017-Apr-27 01:30N 43°01' E 010°03'612.8
2017-Apr-27 01:01N 42°55' E 010°01'612.8
2017-Apr-27 00:31N 42°49' E 009°58'3914.3
2017-Apr-26 21:45N 42°11' E 010°15'161 6.4
2017-Apr-25 20:34N 40°42' E 013°15'217.8
2017-Apr-25 20:29N 40°42' E 013°17'817.4
2017-Apr-25 20:00N 40°40' E 013°28'917.5
2017-Apr-25 19:30N 40°40' E 013°39'917.5
2017-Apr-25 19:00N 40°39' E 013°51'917.3
2017-Apr-25 18:30N 40°39' E 014°02'1116.2
2017-Apr-25 17:51N 40°45' E 014°13'514.5
2017-Apr-25 17:30N 40°49' E 014°17'365 9.6
2017-Apr-24 03:29N 41°16' E 006°14'816.6
2017-Apr-24 02:59N 41°16' E 006°03'917.5
2017-Apr-24 02:29N 41°16' E 005°51'917.9
2017-Apr-24 02:00N 41°16' E 005°40'918.2
2017-Apr-24 01:31N 41°16' E 005°28'918.2
2017-Apr-24 01:01N 41°16' E 005°16'5317.9
2017-Apr-23 22:02N 41°15' E 004°05'017.1
2017-Apr-23 22:00N 41°15' E 004°04'916.9
2017-Apr-23 21:30N 41°15' E 003°53'816.9
2017-Apr-23 21:00N 41°16' E 003°42'816.9
2017-Apr-23 20:30N 41°16' E 003°30'816.8
2017-Apr-23 20:01N 41°16' E 003°19'816.7
2017-Apr-23 19:31N 41°15' E 003°08'816.4
2017-Apr-23 19:00N 41°13' E 002°58'815.6
2017-Apr-23 18:30N 41°15' E 002°47'816.5
2017-Apr-23 18:00N 41°16' E 002°36'916.9
2017-Apr-23 17:30N 41°16' E 002°25'817.0
2017-Apr-23 17:00N 41°16' E 002°14'611.4
2017-Apr-23 16:30N 41°21' E 002°10'1 2.5
2017-Apr-23 16:00N 41°22' E 002°11'0 0.0
2017-Apr-23 15:24N 41°22' E 002°11'0 0.0
2017-Apr-23 13:37N 41°22' E 002°11'0 0.0
2017-Apr-23 13:25N 41°22' E 002°11'0 0.0
2017-Apr-23 12:56N 41°22' E 002°11'0 0.0
2017-Apr-23 12:29N 41°22' E 002°11'0 0.0
2017-Apr-23 07:29N 41°22' E 002°11'0 0.0
2017-Apr-23 06:56N 41°22' E 002°11'0 0.0
2017-Apr-23 06:30N 41°22' E 002°11'0 0.0
2017-Apr-23 06:00N 41°22' E 002°11'0 0.0
2017-Apr-23 05:30N 41°22' E 002°11'0 0.0
2017-Apr-23 04:58N 41°22' E 002°11'0 0.0
2017-Apr-23 04:28N 41°22' E 002°11'0 0.0
2017-Apr-23 03:50N 41°22' E 002°11'0 0.0
2017-Apr-23 03:20N 41°22' E 002°11'0 0.0
2017-Apr-23 02:58N 41°22' E 002°11'0 1.1
2017-Apr-23 02:30N 41°21' E 002°10'4 7.5
2017-Apr-23 02:00N 41°18' E 002°11'4 8.9
2017-Apr-23 01:30N 41°13' E 002°10'5 9.5
2017-Apr-23 01:00N 41°09' E 002°07'5 9.9
2017-Apr-23 00:30N 41°05' E 002°04'510.2
2017-Apr-23 00:00N 40°60' E 002°01'510.5
2017-Apr-22 23:30N 40°55' E 001°58'510.6
2017-Apr-22 23:00N 40°50' E 001°55'510.0
2017-Apr-22 22:30N 40°46' E 001°52'5 9.9
2017-Apr-22 22:00N 40°42' E 001°49'510.5
2017-Apr-22 21:30N 40°37' E 001°46'510.4
2017-Apr-22 21:00N 40°32' E 001°43'5 9.5
2017-Apr-22 20:30N 40°28' E 001°40'5 9.9
2017-Apr-22 20:01N 40°24' E 001°37'5 9.9
2017-Apr-22 19:30N 40°19' E 001°34'510.2
2017-Apr-22 19:00N 40°15' E 001°31'510.0
2017-Apr-22 18:30N 40°10' E 001°29'510.3
2017-Apr-22 18:00N 40°05' E 001°26'510.4
2017-Apr-22 17:30N 40°00' E 001°23'510.3
2017-Apr-22 17:00N 39°56' E 001°20'510.3
2017-Apr-22 16:30N 39°51' E 001°18'510.3
2017-Apr-22 16:00N 39°46' E 001°16'90 9.9
2017-Apr-22 06:58N 38°27' E 000°23'810.1
2017-Apr-22 06:09N 38°20' E 000°17'210.1
2017-Apr-22 05:58N 38°18' E 000°16'710.2
2017-Apr-22 05:17N 38°12' E 000°11'410.4
2017-Apr-22 04:56N 38°09' E 000°09'410.2
2017-Apr-22 04:30N 38°05' E 000°06'610.2
2017-Apr-22 03:55N 38°00' E 000°02'510.1
2017-Apr-22 03:28N 37°57' W 000°02'1710.5
2017-Apr-22 01:49N 37°42' W 000°13'411.0
2017-Apr-22 01:29N 37°39' W 000°16'511.0
2017-Apr-22 01:01N 37°34' W 000°20'612.7
2017-Apr-22 00:30N 37°29' W 000°24'1913.2
2017-Apr-21 23:05N 37°18' W 000°43'113.0
2017-Apr-21 23:00N 37°17' W 000°44'20810.3
2017-Apr-21 02:47N 36°14' W 004°51'515.5
2017-Apr-21 02:26N 36°09' W 004°54'613.4
2017-Apr-21 02:00N 36°06' W 005°00'713.2
2017-Apr-21 01:30N 36°02' W 005°07'613.0
2017-Apr-21 01:00N 36°01' W 005°15'612.1
2017-Apr-21 00:30N 35°59' W 005°22'612.3
2017-Apr-21 00:00N 35°56' W 005°29'714.1
2017-Apr-20 23:30N 35°54' W 005°37'715.0
2017-Apr-20 23:00N 35°53' W 005°46'55118.0
2017-Apr-19 16:29N 29°09' W 013°11'816.7
2017-Apr-19 16:00N 29°04' W 013°18'1019.0
2017-Apr-19 15:30N 28°58' W 013°26'510.1
2017-Apr-19 15:00N 28°58' W 013°32'0 0.1
2017-Apr-19 14:17N 28°58' W 013°32'0 0.0
2017-Apr-19 13:17N 28°58' W 013°32'0 0.0
2017-Apr-19 13:00N 28°58' W 013°32'0 0.0
2017-Apr-19 12:30N 28°58' W 013°32'0 0.0
2017-Apr-19 12:00N 28°58' W 013°32'0 0.0
2017-Apr-19 11:31N 28°58' W 013°32'0 0.0
2017-Apr-19 10:37N 28°58' W 013°32'0 0.0
2017-Apr-19 10:07N 28°58' W 013°32'0 0.0
2017-Apr-19 09:59N 28°58' W 013°32'0 0.0
2017-Apr-19 09:11N 28°58' W 013°32'0 0.0
2017-Apr-19 08:50N 28°58' W 013°32'0 0.0
2017-Apr-19 08:30N 28°58' W 013°32'0 0.0
2017-Apr-19 08:00N 28°58' W 013°32'0 0.0
2017-Apr-19 07:15N 28°58' W 013°32'0 0.0
2017-Apr-19 06:55N 28°58' W 013°32'0 0.0
2017-Apr-19 05:58N 28°58' W 013°32'0 0.9
2017-Apr-19 05:30N 28°57' W 013°32'1 2.9
2017-Apr-19 05:00N 28°56' W 013°32'612.3
2017-Apr-19 04:30N 28°50' W 013°32'916.9
2017-Apr-19 04:00N 28°41' W 013°33'613.0
2017-Apr-19 03:30N 28°35' W 013°33'612.5
2017-Apr-19 03:00N 28°29' W 013°34'612.5
2017-Apr-19 02:30N 28°22' W 013°34'612.6
2017-Apr-19 02:00N 28°16' W 013°34'713.2
2017-Apr-19 01:30N 28°10' W 013°35'713.6
2017-Apr-19 01:00N 28°03' W 013°35'713.6
2017-Apr-19 00:30N 27°56' W 013°36'713.4
2017-Apr-19 00:00N 27°49' W 013°36'611.9
2017-Apr-18 23:30N 27°45' W 013°41'713.4
2017-Apr-18 23:00N 27°43' W 013°48'814.9
2017-Apr-18 22:30N 27°41' W 013°56'817.0
2017-Apr-18 22:00N 27°38' W 014°05'816.8
2017-Apr-18 21:30N 27°36' W 014°14'816.7
2017-Apr-18 21:00N 27°35' W 014°23'916.8
2017-Apr-18 20:30N 27°36' W 014°33'917.0
2017-Apr-18 19:59N 27°40' W 014°42'816.7
2017-Apr-18 19:30N 27°43' W 014°50'816.4
2017-Apr-18 19:00N 27°47' W 014°58'816.6
2017-Apr-18 18:30N 27°51' W 015°07'816.2
2017-Apr-18 18:00N 27°56' W 015°13'816.6
2017-Apr-18 17:30N 28°02' W 015°19'714.6
2017-Apr-18 17:00N 28°08' W 015°25'1 1.3
2017-Apr-18 16:29N 28°08' W 015°25'0 0.0
2017-Apr-18 15:54N 28°08' W 015°25'0 0.0
2017-Apr-18 15:30N 28°08' W 015°25'0 0.0
2017-Apr-18 14:51N 28°08' W 015°25'0 0.0
2017-Apr-18 13:52N 28°08' W 015°25'0 0.0
2017-Apr-18 13:25N 28°08' W 015°25'0 0.0
2017-Apr-18 12:59N 28°08' W 015°25'0 0.0
2017-Apr-18 12:23N 28°08' W 015°25'0 0.0
2017-Apr-18 11:59N 28°08' W 015°25'0 0.0
2017-Apr-18 11:24N 28°08' W 015°25'0 0.0
2017-Apr-18 10:57N 28°08' W 015°25'0 0.0
2017-Apr-18 10:30N 28°08' W 015°25'0 0.0
2017-Apr-18 09:55N 28°08' W 015°25'0 0.0
2017-Apr-18 09:28N 28°08' W 015°25'0 0.0
2017-Apr-18 08:55N 28°08' W 015°25'0 0.0
2017-Apr-18 08:26N 28°08' W 015°25'0 0.0
2017-Apr-18 07:53N 28°08' W 015°25'0 0.0
2017-Apr-18 07:30N 28°08' W 015°25'0 0.5
2017-Apr-18 07:00N 28°08' W 015°25'3 5.2
2017-Apr-18 06:30N 28°07' W 015°23'5 9.9
2017-Apr-18 06:00N 28°08' W 015°17'613.0
2017-Apr-18 05:30N 28°10' W 015°10'713.1
2017-Apr-18 05:00N 28°11' W 015°03'612.5
2017-Apr-18 04:30N 28°16' W 014°58'713.3
2017-Apr-18 04:00N 28°22' W 014°54'815.7
2017-Apr-18 03:30N 28°28' W 014°50'917.2
2017-Apr-18 03:00N 28°35' W 014°43'  
Track history (hours):
 
Tides and Currents Weather Stations Pressure Air Temp Water Temp Dewpoint Dewpoint Depression Visibility Wind Speed Wind Dir Waves Ship Positions

Norwegian Epic

Last reported at 2017-Apr-28 02:30 UTC. Time now 2017-Apr-28 02:33 UTC.
Position N 43°29' E 007°45'.

Length 329 m; draft 9.2 m.

Type: Passenger vessel. MMSI: 311018500.

Date/timePositionNaut miles runAvg speedWind from/ knotsBaromVisibWave heightAir tempDewpointWater temp
2017-Apr-28 02:30N 43°29' E 007°45'713.6
2017-Apr-28 02:00N 43°29' E 007°55'613.1
2017-Apr-28 01:30N 43°29' E 008°04'612.9
2017-Apr-28 01:00N 43°29' E 008°13'713.3
2017-Apr-28 00:29N 43°30' E 008°23'612.7
2017-Apr-28 00:00N 43°30' E 008°31'511.0
2017-Apr-27 23:30N 43°30' E 008°38'611.4
2017-Apr-27 23:00N 43°30' E 008°46'611.4
2017-Apr-27 22:30N 43°30' E 008°54'611.4
2017-Apr-27 22:00N 43°31' E 009°02'611.2
2017-Apr-27 21:30N 43°31' E 009°10'611.5
2017-Apr-27 21:00N 43°31' E 009°17'611.6
2017-Apr-27 20:30N 43°31' E 009°25'611.9
2017-Apr-27 20:00N 43°31' E 009°34'611.7
2017-Apr-27 19:30N 43°31' E 009°42'612.0
2017-Apr-27 19:00N 43°32' E 009°50'712.3
2017-Apr-27 18:27N 43°31' E 009°59'612.2
2017-Apr-27 18:00N 43°30' E 010°07'611.5
2017-Apr-27 17:30N 43°32' E 010°15'3 4.1
2017-Apr-27 16:52N 43°33' E 010°18'0 0.0
2017-Apr-27 16:28N 43°33' E 010°18'0 0.0
2017-Apr-27 15:58N 43°33' E 010°18'0 0.0
2017-Apr-27 15:28N 43°33' E 010°18'0 0.0
2017-Apr-27 14:59N 43°33' E 010°18'0 0.0
2017-Apr-27 13:59N 43°33' E 010°18'0 0.0
2017-Apr-27 13:30N 43°33' E 010°18'0 0.0
2017-Apr-27 13:00N 43°33' E 010°18'0 0.0
2017-Apr-27 12:27N 43°33' E 010°18'0 0.0
2017-Apr-27 11:58N 43°33' E 010°18'0 0.0
2017-Apr-27 11:28N 43°33' E 010°18'0 0.0
2017-Apr-27 10:58N 43°33' E 010°18'0 0.0
2017-Apr-27 10:29N 43°33' E 010°18'0 0.0
2017-Apr-27 09:59N 43°33' E 010°18'0 0.0
2017-Apr-27 09:29N 43°33' E 010°18'0 0.0
2017-Apr-27 09:00N 43°33' E 010°18'0 0.0
2017-Apr-27 08:30N 43°33' E 010°18'0 0.0
2017-Apr-27 08:00N 43°33' E 010°18'0 0.0
2017-Apr-27 07:28N 43°33' E 010°18'0 0.0
2017-Apr-27 06:58N 43°33' E 010°18'0 0.0
2017-Apr-27 06:28N 43°33' E 010°18'0 0.0
2017-Apr-27 05:59N 43°33' E 010°18'0 0.0
2017-Apr-27 05:29N 43°33' E 010°18'0 0.0
2017-Apr-27 04:56N 43°33' E 010°18'0 0.4
2017-Apr-27 04:31N 43°33' E 010°18'3 5.6
2017-Apr-27 04:00N 43°31' E 010°15'611.8
2017-Apr-27 03:31N 43°26' E 010°12'612.9
2017-Apr-27 03:00N 43°19' E 010°09'612.9
2017-Apr-27 02:30N 43°13' E 010°07'612.8
2017-Apr-27 02:00N 43°07' E 010°05'612.6
2017-Apr-27 01:30N 43°01' E 010°03'612.8
2017-Apr-27 01:01N 42°55' E 010°01'612.8
2017-Apr-27 00:31N 42°49' E 009°58'3914.3
2017-Apr-26 21:45N 42°11' E 010°15'161 6.4
2017-Apr-25 20:34N 40°42' E 013°15'217.8
2017-Apr-25 20:29N 40°42' E 013°17'817.4
2017-Apr-25 20:00N 40°40' E 013°28'917.5
2017-Apr-25 19:30N 40°40' E 013°39'917.5
2017-Apr-25 19:00N 40°39' E 013°51'917.3
2017-Apr-25 18:30N 40°39' E 014°02'1116.2
2017-Apr-25 17:51N 40°45' E 014°13'514.5
2017-Apr-25 17:30N 40°49' E 014°17'365 9.6
2017-Apr-24 03:29N 41°16' E 006°14'816.6
2017-Apr-24 02:59N 41°16' E 006°03'917.5
2017-Apr-24 02:29N 41°16' E 005°51'917.9
2017-Apr-24 02:00N 41°16' E 005°40'918.2
2017-Apr-24 01:31N 41°16' E 005°28'918.2
2017-Apr-24 01:01N 41°16' E 005°16'5317.9
2017-Apr-23 22:02N 41°15' E 004°05'017.1
2017-Apr-23 22:00N 41°15' E 004°04'916.9
2017-Apr-23 21:30N 41°15' E 003°53'816.9
2017-Apr-23 21:00N 41°16' E 003°42'816.9
2017-Apr-23 20:30N 41°16' E 003°30'816.8
2017-Apr-23 20:01N 41°16' E 003°19'816.7
2017-Apr-23 19:31N 41°15' E 003°08'816.4
2017-Apr-23 19:00N 41°13' E 002°58'815.6
2017-Apr-23 18:30N 41°15' E 002°47'816.5
2017-Apr-23 18:00N 41°16' E 002°36'916.9
2017-Apr-23 17:30N 41°16' E 002°25'817.0
2017-Apr-23 17:00N 41°16' E 002°14'611.4
2017-Apr-23 16:30N 41°21' E 002°10'1 2.5
2017-Apr-23 16:00N 41°22' E 002°11'0 0.0
2017-Apr-23 15:24N 41°22' E 002°11'0 0.0
2017-Apr-23 13:37N 41°22' E 002°11'0 0.0
2017-Apr-23 13:25N 41°22' E 002°11'0 0.0
2017-Apr-23 12:56N 41°22' E 002°11'0 0.0
2017-Apr-23 12:29N 41°22' E 002°11'0 0.0
2017-Apr-23 07:29N 41°22' E 002°11'0 0.0
2017-Apr-23 06:56N 41°22' E 002°11'0 0.0
2017-Apr-23 06:30N 41°22' E 002°11'0 0.0
2017-Apr-23 06:00N 41°22' E 002°11'0 0.0
2017-Apr-23 05:30N 41°22' E 002°11'0 0.0
2017-Apr-23 04:58N 41°22' E 002°11'0 0.0
2017-Apr-23 04:28N 41°22' E 002°11'0 0.0
2017-Apr-23 03:50N 41°22' E 002°11'0 0.0
2017-Apr-23 03:20N 41°22' E 002°11'0 0.0
2017-Apr-23 02:58N 41°22' E 002°11'0 1.1
2017-Apr-23 02:30N 41°21' E 002°10'4 7.5
2017-Apr-23 02:00N 41°18' E 002°11'4 8.9
2017-Apr-23 01:30N 41°13' E 002°10'5 9.5
2017-Apr-23 01:00N 41°09' E 002°07'5 9.9
2017-Apr-23 00:30N 41°05' E 002°04'510.2
2017-Apr-23 00:00N 40°60' E 002°01'510.5
2017-Apr-22 23:30N 40°55' E 001°58'510.6
2017-Apr-22 23:00N 40°50' E 001°55'510.0
2017-Apr-22 22:30N 40°46' E 001°52'5 9.9
2017-Apr-22 22:00N 40°42' E 001°49'510.5
2017-Apr-22 21:30N 40°37' E 001°46'510.4
2017-Apr-22 21:00N 40°32' E 001°43'5 9.5
2017-Apr-22 20:30N 40°28' E 001°40'5 9.9
2017-Apr-22 20:01N 40°24' E 001°37'5 9.9
2017-Apr-22 19:30N 40°19' E 001°34'510.2
2017-Apr-22 19:00N 40°15' E 001°31'510.0
2017-Apr-22 18:30N 40°10' E 001°29'510.3
2017-Apr-22 18:00N 40°05' E 001°26'510.4
2017-Apr-22 17:30N 40°00' E 001°23'510.3
2017-Apr-22 17:00N 39°56' E 001°20'510.3
2017-Apr-22 16:30N 39°51' E 001°18'510.3
2017-Apr-22 16:00N 39°46' E 001°16'90 9.9
2017-Apr-22 06:58N 38°27' E 000°23'810.1
2017-Apr-22 06:09N 38°20' E 000°17'210.1
2017-Apr-22 05:58N 38°18' E 000°16'710.2
2017-Apr-22 05:17N 38°12' E 000°11'410.4
2017-Apr-22 04:56N 38°09' E 000°09'410.2
2017-Apr-22 04:30N 38°05' E 000°06'610.2
2017-Apr-22 03:55N 38°00' E 000°02'510.1
2017-Apr-22 03:28N 37°57' W 000°02'1710.5
2017-Apr-22 01:49N 37°42' W 000°13'411.0
2017-Apr-22 01:29N 37°39' W 000°16'511.0
2017-Apr-22 01:01N 37°34' W 000°20'612.7
2017-Apr-22 00:30N 37°29' W 000°24'1913.2
2017-Apr-21 23:05N 37°18' W 000°43'113.0
2017-Apr-21 23:00N 37°17' W 000°44'20810.3
2017-Apr-21 02:47N 36°14' W 004°51'515.5
2017-Apr-21 02:26N 36°09' W 004°54'613.4
2017-Apr-21 02:00N 36°06' W 005°00'713.2
2017-Apr-21 01:30N 36°02' W 005°07'613.0
2017-Apr-21 01:00N 36°01' W 005°15'612.1
2017-Apr-21 00:30N 35°59' W 005°22'612.3
2017-Apr-21 00:00N 35°56' W 005°29'714.1
2017-Apr-20 23:30N 35°54' W 005°37'715.0
2017-Apr-20 23:00N 35°53' W 005°46'55118.0
2017-Apr-19 16:29N 29°09' W 013°11'816.7
2017-Apr-19 16:00N 29°04' W 013°18'1019.0
2017-Apr-19 15:30N 28°58' W 013°26'510.1
2017-Apr-19 15:00N 28°58' W 013°32'0 0.1
2017-Apr-19 14:17N 28°58' W 013°32'0 0.0
2017-Apr-19 13:17N 28°58' W 013°32'0 0.0
2017-Apr-19 13:00N 28°58' W 013°32'0 0.0
2017-Apr-19 12:30N 28°58' W 013°32'0 0.0
2017-Apr-19 12:00N 28°58' W 013°32'0 0.0
2017-Apr-19 11:31N 28°58' W 013°32'0 0.0
2017-Apr-19 10:37N 28°58' W 013°32'0 0.0
2017-Apr-19 10:07N 28°58' W 013°32'0 0.0
2017-Apr-19 09:59N 28°58' W 013°32'0 0.0
2017-Apr-19 09:11N 28°58' W 013°32'0 0.0
2017-Apr-19 08:50N 28°58' W 013°32'0 0.0
2017-Apr-19 08:30N 28°58' W 013°32'0 0.0
2017-Apr-19 08:00N 28°58' W 013°32'0 0.0
2017-Apr-19 07:15N 28°58' W 013°32'0 0.0
2017-Apr-19 06:55N 28°58' W 013°32'0 0.0
2017-Apr-19 05:58N 28°58' W 013°32'0 0.9
2017-Apr-19 05:30N 28°57' W 013°32'1 2.9
2017-Apr-19 05:00N 28°56' W 013°32'612.3
2017-Apr-19 04:30N 28°50' W 013°32'916.9
2017-Apr-19 04:00N 28°41' W 013°33'613.0
2017-Apr-19 03:30N 28°35' W 013°33'612.5
2017-Apr-19 03:00N 28°29' W 013°34'612.5
2017-Apr-19 02:30N 28°22' W 013°34'612.6
2017-Apr-19 02:00N 28°16' W 013°34'713.2
2017-Apr-19 01:30N 28°10' W 013°35'713.6
2017-Apr-19 01:00N 28°03' W 013°35'713.6
2017-Apr-19 00:30N 27°56' W 013°36'713.4
2017-Apr-19 00:00N 27°49' W 013°36'611.9
2017-Apr-18 23:30N 27°45' W 013°41'713.4
2017-Apr-18 23:00N 27°43' W 013°48'814.9
2017-Apr-18 22:30N 27°41' W 013°56'817.0
2017-Apr-18 22:00N 27°38' W 014°05'816.8
2017-Apr-18 21:30N 27°36' W 014°14'816.7
2017-Apr-18 21:00N 27°35' W 014°23'916.8
2017-Apr-18 20:30N 27°36' W 014°33'917.0
2017-Apr-18 19:59N 27°40' W 014°42'816.7
2017-Apr-18 19:30N 27°43' W 014°50'816.4
2017-Apr-18 19:00N 27°47' W 014°58'816.6
2017-Apr-18 18:30N 27°51' W 015°07'816.2
2017-Apr-18 18:00N 27°56' W 015°13'816.6
2017-Apr-18 17:30N 28°02' W 015°19'714.6
2017-Apr-18 17:00N 28°08' W 015°25'1 1.3
2017-Apr-18 16:29N 28°08' W 015°25'0 0.0
2017-Apr-18 15:54N 28°08' W 015°25'0 0.0
2017-Apr-18 15:30N 28°08' W 015°25'0 0.0
2017-Apr-18 14:51N 28°08' W 015°25'0 0.0
2017-Apr-18 13:52N 28°08' W 015°25'0 0.0
2017-Apr-18 13:25N 28°08' W 015°25'0 0.0
2017-Apr-18 12:59N 28°08' W 015°25'0 0.0
2017-Apr-18 12:23N 28°08' W 015°25'0 0.0
2017-Apr-18 11:59N 28°08' W 015°25'0 0.0
2017-Apr-18 11:24N 28°08' W 015°25'0 0.0
2017-Apr-18 10:57N 28°08' W 015°25'0 0.0
2017-Apr-18 10:30N 28°08' W 015°25'0 0.0
2017-Apr-18 09:55N 28°08' W 015°25'0 0.0
2017-Apr-18 09:28N 28°08' W 015°25'0 0.0
2017-Apr-18 08:55N 28°08' W 015°25'0 0.0
2017-Apr-18 08:26N 28°08' W 015°25'0 0.0
2017-Apr-18 07:53N 28°08' W 015°25'0 0.0
2017-Apr-18 07:30N 28°08' W 015°25'0 0.5
2017-Apr-18 07:00N 28°08' W 015°25'3 5.2
2017-Apr-18 06:30N 28°07' W 015°23'5 9.9
2017-Apr-18 06:00N 28°08' W 015°17'613.0
2017-Apr-18 05:30N 28°10' W 015°10'713.1
2017-Apr-18 05:00N 28°11' W 015°03'612.5
2017-Apr-18 04:30N 28°16' W 014°58'713.3
2017-Apr-18 04:00N 28°22' W 014°54'815.7
2017-Apr-18 03:30N 28°28' W 014°50'917.2
2017-Apr-18 03:00N 28°35' W 014°43'  

Dump ship's entire track history